createdAt,value
2023-05-07T00:00:36.488Z,32.700001
2023-05-07T00:01:45.052Z,33.799999
2023-05-07T00:02:53.450Z,33.799999
2023-05-07T00:04:01.795Z,33.799999
2023-05-07T00:05:10.408Z,33.200001
2023-05-07T00:06:18.594Z,33.200001
2023-05-07T00:07:26.928Z,33.200001
2023-05-07T00:08:35.486Z,32.200001
2023-05-07T00:09:43.829Z,32.200001
2023-05-07T00:10:52.167Z,32.200001
2023-05-07T00:12:00.738Z,32.799999
2023-05-07T00:13:09.108Z,32.799999
2023-05-07T00:14:17.404Z,32.799999
2023-05-07T00:15:26.065Z,33.900002
2023-05-07T00:16:34.352Z,33.900002
2023-05-07T00:17:42.670Z,33.900002
2023-05-07T00:18:51.167Z,33.299999
2023-05-07T00:19:59.498Z,33.299999
2023-05-07T00:21:07.860Z,33.299999
2023-05-07T00:22:16.380Z,33.200001
2023-05-07T00:23:24.707Z,33.200001
2023-05-07T00:24:33.043Z,33.200001
2023-05-07T00:25:41.597Z,33.599998
2023-05-07T00:26:49.953Z,33.599998
2023-05-07T00:27:58.272Z,33.599998
2023-05-07T00:29:06.819Z,31.1
2023-05-07T00:30:15.156Z,31.1
2023-05-07T00:31:23.543Z,31.1
2023-05-07T00:32:32.068Z,32
2023-05-07T00:33:40.379Z,32
2023-05-07T00:34:48.721Z,32
2023-05-07T00:35:57.274Z,31.799999
2023-05-07T00:37:06.663Z,31.799999
2023-05-07T00:38:14.145Z,31.799999
2023-05-07T00:39:22.693Z,29.6
2023-05-07T00:40:31.031Z,29.6
2023-05-07T00:41:39.377Z,29.6
2023-05-07T00:42:47.929Z,31.1
2023-05-07T00:43:56.254Z,31.1
2023-05-07T00:45:04.607Z,31.1
2023-05-07T00:46:13.151Z,29.5
2023-05-07T00:47:21.596Z,29.5
2023-05-07T00:48:29.769Z,29.5
2023-05-07T00:49:38.310Z,29.6
2023-05-07T00:50:46.658Z,29.6
2023-05-07T00:51:55.011Z,29.6
2023-05-07T00:53:03.549Z,28.9
2023-05-07T00:54:11.885Z,28.9
2023-05-07T00:55:20.222Z,28.9
2023-05-07T00:56:28.778Z,30.1
2023-05-07T00:57:37.141Z,30.1
2023-05-07T00:58:45.497Z,30.1
2023-05-07T00:59:54.027Z,28.5
2023-05-07T01:01:02.421Z,28.5
2023-05-07T01:02:10.669Z,28.5
2023-05-07T01:03:19.312Z,30.299999
2023-05-07T01:04:27.571Z,30.299999
2023-05-07T01:05:35.884Z,30.299999
2023-05-07T01:06:44.425Z,30.200001
2023-05-07T01:07:52.772Z,30.200001
2023-05-07T01:09:01.094Z,30.200001
2023-05-07T01:10:09.816Z,29.5
2023-05-07T01:11:17.978Z,29.5
2023-05-07T01:12:26.301Z,29.5
2023-05-07T01:13:34.845Z,29.200001
2023-05-07T01:14:43.186Z,29.200001
2023-05-07T01:15:51.516Z,29.200001
2023-05-07T01:17:00.090Z,29.299999
2023-05-07T01:18:08.413Z,29.299999
2023-05-07T01:19:16.984Z,29.299999
2023-05-07T01:20:25.278Z,28.6
2023-05-07T01:21:33.609Z,28.6
2023-05-07T01:22:41.958Z,28.6
2023-05-07T01:23:50.484Z,28.299999
2023-05-07T01:24:58.806Z,28.299999
2023-05-07T01:26:07.143Z,28.299999
2023-05-07T01:27:15.684Z,28.4
2023-05-07T01:28:24.061Z,28.4
2023-05-07T01:29:32.388Z,28.4
2023-05-07T01:30:40.956Z,28
2023-05-07T01:31:49.272Z,28
2023-05-07T01:32:57.656Z,28
2023-05-07T01:34:06.154Z,27
2023-05-07T01:35:14.518Z,27
2023-05-07T01:36:22.837Z,27
2023-05-07T01:37:31.369Z,27.799999
2023-05-07T01:38:39.695Z,27.799999
2023-05-07T01:39:48.023Z,27.799999
2023-05-07T01:40:56.568Z,28
2023-05-07T01:42:04.898Z,28
2023-05-07T01:43:13.233Z,28
2023-05-07T01:44:21.762Z,28.5
2023-05-07T01:45:30.091Z,28.5
2023-05-07T01:46:38.461Z,28.5
2023-05-07T01:47:47.059Z,27.4
2023-05-07T01:48:55.324Z,27.4
2023-05-07T01:50:03.651Z,27.4
2023-05-07T01:51:12.300Z,27
2023-05-07T01:52:20.546Z,27
2023-05-07T01:53:28.869Z,27
2023-05-07T01:54:37.412Z,27.200001
2023-05-07T01:55:45.752Z,27.200001
2023-05-07T01:56:54.074Z,27.200001
2023-05-07T01:58:02.628Z,28
2023-05-07T01:59:10.972Z,28
2023-05-07T02:00:19.301Z,28
2023-05-07T02:01:27.877Z,28
2023-05-07T02:02:36.206Z,28
2023-05-07T02:03:44.609Z,28
2023-05-07T02:04:53.042Z,27.9
2023-05-07T02:06:01.732Z,27.9
2023-05-07T02:07:10.152Z,27.9
2023-05-07T02:08:18.590Z,28.299999
2023-05-07T02:09:26.921Z,28.299999
2023-05-07T02:10:35.239Z,28.299999
2023-05-07T02:11:43.755Z,29.5
2023-05-07T02:12:52.114Z,29.5
2023-05-07T02:14:00.423Z,29.5
2023-05-07T02:15:08.966Z,31.799999
2023-05-07T02:16:17.333Z,31.799999
2023-05-07T02:17:25.653Z,31.799999
2023-05-07T02:18:34.172Z,32.799999
2023-05-07T02:19:42.499Z,32.799999
2023-05-07T02:20:50.832Z,32.799999
2023-05-07T02:21:59.372Z,32.799999
2023-05-07T02:23:07.789Z,32.799999
2023-05-07T02:24:16.035Z,32.799999
2023-05-07T02:25:24.577Z,31
2023-05-07T02:26:32.910Z,31
2023-05-07T02:27:41.227Z,31
2023-05-07T02:28:49.788Z,32.200001
2023-05-07T02:29:58.143Z,32.200001
2023-05-07T02:31:06.492Z,32.200001
2023-05-07T02:32:15.024Z,32.200001
2023-05-07T02:33:23.328Z,32.200001
2023-05-07T02:34:31.648Z,32.200001
2023-05-07T02:35:40.188Z,34.200001
2023-05-07T02:36:48.545Z,34.200001
2023-05-07T02:37:56.874Z,34.200001
2023-05-07T02:39:05.525Z,33
2023-05-07T02:40:13.915Z,33
2023-05-07T02:41:22.102Z,33
2023-05-07T02:42:30.651Z,33.099998
2023-05-07T02:43:38.966Z,33.099998
2023-05-07T02:44:47.303Z,33.099998
2023-05-07T02:45:55.860Z,31.4
2023-05-07T02:47:04.173Z,31.4
2023-05-07T02:48:12.493Z,31.4
2023-05-07T02:49:21.019Z,31.6
2023-05-07T02:50:29.355Z,31.6
2023-05-07T02:51:37.683Z,31.6
2023-05-07T02:52:46.225Z,32.200001
2023-05-07T02:53:54.563Z,32.200001
2023-05-07T02:55:02.980Z,32.200001
2023-05-07T02:56:11.451Z,32
2023-05-07T02:57:19.776Z,32
2023-05-07T02:58:28.119Z,32
2023-05-07T02:59:36.649Z,33.099998
2023-05-07T03:00:44.996Z,33.099998
2023-05-07T03:01:53.314Z,33.099998
2023-05-07T03:03:01.865Z,32.900002
2023-05-07T03:04:10.230Z,32.900002
2023-05-07T03:05:18.520Z,32.900002
2023-05-07T03:06:27.067Z,32
2023-05-07T03:07:35.414Z,32
2023-05-07T03:08:43.724Z,32
2023-05-07T03:09:52.268Z,33
2023-05-07T03:11:00.654Z,33
2023-05-07T03:12:08.948Z,33
2023-05-07T03:13:17.509Z,34
2023-05-07T03:14:25.814Z,34
2023-05-07T03:15:34.174Z,34
2023-05-07T03:16:42.711Z,34.099998
2023-05-07T03:17:51.092Z,34.099998
2023-05-07T03:18:59.432Z,34.099998
2023-05-07T03:20:07.939Z,32.299999
2023-05-07T03:21:16.243Z,32.299999
2023-05-07T03:22:24.564Z,32.299999
2023-05-07T03:23:33.104Z,34.400002
2023-05-07T03:24:41.425Z,34.400002
2023-05-07T03:25:49.769Z,34.400002
2023-05-07T03:26:58.411Z,33.900002
2023-05-07T03:28:06.655Z,33.900002
2023-05-07T03:29:15.023Z,33.900002
2023-05-07T03:30:23.545Z,34.599998
2023-05-07T03:31:31.888Z,34.599998
2023-05-07T03:32:40.215Z,34.599998
2023-05-07T03:33:48.710Z,34.200001
2023-05-07T03:34:57.039Z,34.200001
2023-05-07T03:36:05.384Z,34.200001
2023-05-07T03:37:13.939Z,32.900002
2023-05-07T03:38:22.262Z,32.900002
2023-05-07T03:39:30.586Z,32.900002
2023-05-07T03:40:39.146Z,33.200001
2023-05-07T03:41:47.485Z,33.200001
2023-05-07T03:42:55.819Z,33.200001
2023-05-07T03:44:04.353Z,33.200001
2023-05-07T03:45:12.675Z,33.200001
2023-05-07T03:46:21.039Z,33.200001
2023-05-07T03:47:29.532Z,32.700001
2023-05-07T03:48:37.854Z,32.700001
2023-05-07T03:49:46.189Z,32.700001
2023-05-07T03:50:54.756Z,34.5
2023-05-07T03:52:03.058Z,34.5
2023-05-07T03:53:11.377Z,34.5
2023-05-07T03:54:19.900Z,33.200001
2023-05-07T03:55:28.249Z,33.200001
2023-05-07T03:56:36.577Z,33.200001
2023-05-07T03:57:45.207Z,33.200001
2023-05-07T03:58:53.475Z,33.200001
2023-05-07T04:00:01.775Z,33.200001
2023-05-07T04:01:10.310Z,33.700001
2023-05-07T04:02:18.673Z,33.700001
2023-05-07T04:03:27.020Z,33.700001
2023-05-07T04:04:35.497Z,33.200001
2023-05-07T04:05:43.812Z,33.200001
2023-05-07T04:06:52.128Z,33.200001
2023-05-07T04:08:00.680Z,33.700001
2023-05-07T04:09:08.978Z,33.700001
2023-05-07T04:10:17.347Z,33.700001
2023-05-07T04:11:25.867Z,33.299999
2023-05-07T04:12:34.178Z,33.299999
2023-05-07T04:13:42.501Z,33.299999
2023-05-07T04:14:51.130Z,32.5
2023-05-07T04:15:59.372Z,32.5
2023-05-07T04:17:07.672Z,32.5
2023-05-07T04:18:16.201Z,31.1
2023-05-07T04:19:24.545Z,31.1
2023-05-07T04:20:32.869Z,31.1
2023-05-07T04:21:41.413Z,31.1
2023-05-07T04:22:49.753Z,31.1
2023-05-07T04:23:58.092Z,31.1
2023-05-07T04:25:06.645Z,30.6
2023-05-07T04:26:14.975Z,30.6
2023-05-07T04:27:23.317Z,30.6
2023-05-07T04:28:31.851Z,29.4
2023-05-07T04:29:40.180Z,29.4
2023-05-07T04:30:48.610Z,29.4
2023-05-07T04:31:57.068Z,29.9
2023-05-07T04:33:05.409Z,29.9
2023-05-07T04:34:13.698Z,29.9
2023-05-07T04:35:22.252Z,29
2023-05-07T04:36:30.567Z,29
2023-05-07T04:37:38.893Z,29
2023-05-07T04:38:47.413Z,30.4
2023-05-07T04:39:55.749Z,30.4
2023-05-07T04:41:04.104Z,30.4
2023-05-07T04:42:12.639Z,31.4
2023-05-07T04:43:20.938Z,31.4
2023-05-07T04:44:29.265Z,31.4
2023-05-07T04:45:37.853Z,28.5
2023-05-07T04:46:46.399Z,28.5
2023-05-07T04:47:54.484Z,28.5
2023-05-07T04:49:03.036Z,29.200001
2023-05-07T04:50:11.543Z,29.200001
2023-05-07T04:51:19.663Z,29.200001
2023-05-07T04:52:28.214Z,31.1
2023-05-07T04:53:36.549Z,31.1
2023-05-07T04:54:44.866Z,31.1
2023-05-07T04:55:53.407Z,29.5
2023-05-07T04:57:01.732Z,29.5
2023-05-07T04:58:10.047Z,29.5
2023-05-07T04:59:18.580Z,29.299999
2023-05-07T05:00:26.900Z,29.299999
2023-05-07T05:01:35.254Z,29.299999
2023-05-07T05:02:43.980Z,30.6
2023-05-07T05:03:52.138Z,30.6
2023-05-07T05:05:00.434Z,30.6
2023-05-07T05:06:08.971Z,29.4
2023-05-07T05:07:17.283Z,29.4
2023-05-07T05:08:25.611Z,29.4
2023-05-07T05:09:34.164Z,30.200001
2023-05-07T05:10:42.481Z,30.200001
2023-05-07T05:11:50.797Z,30.200001
2023-05-07T05:12:59.385Z,28.200001
2023-05-07T05:14:07.654Z,28.200001
2023-05-07T05:15:15.963Z,28.200001
2023-05-07T05:16:24.564Z,29.200001
2023-05-07T05:17:32.842Z,29.200001
2023-05-07T05:18:41.236Z,29.200001
2023-05-07T05:19:49.689Z,32.5
2023-05-07T05:20:58.015Z,32.5
2023-05-07T05:22:06.325Z,32.5
2023-05-07T05:23:14.854Z,28.6
2023-05-07T05:24:23.168Z,28.6
2023-05-07T05:25:31.492Z,28.6
2023-05-07T05:26:40.034Z,28.799999
2023-05-07T05:27:48.364Z,28.799999
2023-05-07T05:28:56.669Z,28.799999
2023-05-07T05:30:05.207Z,30.700001
2023-05-07T05:31:13.579Z,30.700001
2023-05-07T05:32:21.907Z,30.700001
2023-05-07T05:33:30.376Z,29.4
2023-05-07T05:34:38.796Z,29.4
2023-05-07T05:35:47.020Z,29.4
2023-05-07T05:36:55.546Z,28.700001
2023-05-07T05:38:03.876Z,28.700001
2023-05-07T05:39:12.206Z,28.700001
2023-05-07T05:40:20.740Z,28.6
2023-05-07T05:41:29.068Z,28.6
2023-05-07T05:42:37.408Z,28.6
2023-05-07T05:43:45.925Z,30.6
2023-05-07T05:44:54.251Z,30.6
2023-05-07T05:46:02.624Z,30.6
2023-05-07T05:47:11.116Z,31.299999
2023-05-07T05:48:19.483Z,31.299999
2023-05-07T05:49:27.806Z,31.299999
2023-05-07T05:50:36.465Z,30.6
2023-05-07T05:51:44.687Z,30.6
2023-05-07T05:52:53.026Z,30.6
2023-05-07T05:54:01.600Z,29.6
2023-05-07T05:55:09.907Z,29.6
2023-05-07T05:56:18.256Z,29.6
2023-05-07T05:57:28.708Z,30
2023-05-07T05:58:35.119Z,30
2023-05-07T05:59:43.415Z,30
2023-05-07T06:00:51.967Z,29.799999
2023-05-07T06:02:00.321Z,29.799999
2023-05-07T06:03:08.654Z,29.799999
2023-05-07T06:04:17.140Z,28.5
2023-05-07T06:05:25.500Z,28.5
2023-05-07T06:06:33.909Z,28.5
2023-05-07T06:07:42.357Z,29.299999
2023-05-07T06:08:50.689Z,29.299999
2023-05-07T06:09:59.015Z,29.299999
2023-05-07T06:11:07.562Z,31.799999
2023-05-07T06:12:15.903Z,31.799999
2023-05-07T06:13:24.286Z,31.799999
2023-05-07T06:14:32.758Z,29.9
2023-05-07T06:15:41.101Z,29.9
2023-05-07T06:16:49.453Z,29.9
2023-05-07T06:17:57.979Z,29.6
2023-05-07T06:19:06.284Z,29.6
2023-05-07T06:20:14.602Z,29.6
2023-05-07T06:21:23.143Z,28.9
2023-05-07T06:22:31.736Z,28.9
2023-05-07T06:23:40.762Z,28.9
2023-05-07T06:24:48.340Z,27.700001
2023-05-07T06:25:56.659Z,27.700001
2023-05-07T06:27:04.973Z,27.700001
2023-05-07T06:28:13.497Z,27.200001
2023-05-07T06:29:21.840Z,27.200001
2023-05-07T06:30:30.160Z,27.200001
2023-05-07T06:31:38.733Z,26.6
2023-05-07T06:32:47.028Z,26.6
2023-05-07T06:33:55.330Z,26.6
2023-05-07T06:35:03.852Z,27
2023-05-07T06:36:12.161Z,27
2023-05-07T06:37:20.485Z,27
2023-05-07T06:38:29.140Z,26.799999
2023-05-07T06:39:37.330Z,26.799999
2023-05-07T06:40:45.640Z,26.799999
2023-05-07T06:41:54.166Z,27.5
2023-05-07T06:43:02.489Z,27.5
2023-05-07T06:44:10.813Z,27.5
2023-05-07T06:45:19.336Z,26.700001
2023-05-07T06:46:27.660Z,26.700001
2023-05-07T06:47:36.039Z,26.700001
2023-05-07T06:48:44.497Z,26.5
2023-05-07T06:49:52.802Z,26.5
2023-05-07T06:51:01.121Z,26.5
2023-05-07T06:52:09.624Z,24.200001
2023-05-07T06:53:17.945Z,24.200001
2023-05-07T06:54:26.350Z,24.200001
2023-05-07T06:55:34.797Z,23.799999
2023-05-07T06:56:43.112Z,23.799999
2023-05-07T06:57:51.406Z,23.799999
2023-05-07T06:58:59.912Z,24.299999
2023-05-07T07:00:08.230Z,24.299999
2023-05-07T07:01:16.569Z,24.299999
2023-05-07T07:02:25.069Z,24.700001
2023-05-07T07:03:33.344Z,24.700001
2023-05-07T07:04:41.657Z,24.700001
2023-05-07T07:05:50.153Z,24.9
2023-05-07T07:06:58.471Z,24.9
2023-05-07T07:08:06.780Z,24.9
2023-05-07T07:09:15.287Z,23.1
2023-05-07T07:10:23.719Z,23.1
2023-05-07T07:11:31.928Z,23.1
2023-05-07T07:12:40.518Z,24.299999
2023-05-07T07:13:48.804Z,24.299999
2023-05-07T07:14:57.792Z,24.299999
2023-05-07T07:16:06.373Z,25.299999
2023-05-07T07:17:14.641Z,25.299999
2023-05-07T07:18:22.950Z,25.299999
2023-05-07T07:19:31.482Z,24.5
2023-05-07T07:20:39.811Z,24.5
2023-05-07T07:21:48.081Z,24.5
2023-05-07T07:22:56.585Z,24.299999
2023-05-07T07:24:04.898Z,24.299999
2023-05-07T07:25:13.224Z,24.299999
2023-05-07T07:26:21.972Z,24.700001
2023-05-07T07:27:30.083Z,24.700001
2023-05-07T07:28:38.413Z,24.700001
2023-05-07T07:29:47.025Z,23.299999
2023-05-07T07:30:55.272Z,23.299999
2023-05-07T07:32:03.733Z,23.299999
2023-05-07T07:33:12.153Z,22.700001
2023-05-07T07:34:20.457Z,22.700001
2023-05-07T07:35:28.794Z,22.700001
2023-05-07T07:36:45.374Z,21.700001
2023-05-07T07:37:45.643Z,21.700001
2023-05-07T07:38:53.972Z,21.700001
2023-05-07T07:40:02.507Z,23.6
2023-05-07T07:41:10.845Z,23.6
2023-05-07T07:42:19.218Z,23.6
2023-05-07T07:43:27.712Z,21.5
2023-05-07T07:44:36.015Z,21.5
2023-05-07T07:45:44.359Z,21.5
2023-05-07T07:46:52.916Z,20.6
2023-05-07T07:48:01.263Z,20.6
2023-05-07T07:49:09.504Z,20.6
2023-05-07T07:50:25.460Z,19.200001
2023-05-07T07:51:26.370Z,19.200001
2023-05-07T07:52:34.762Z,19.200001
2023-05-07T07:53:43.290Z,19.5
2023-05-07T07:54:51.583Z,19.5
2023-05-07T07:56:00.014Z,19.5
2023-05-07T07:57:08.556Z,18.5
2023-05-07T07:58:16.975Z,18.5
2023-05-07T07:59:25.222Z,18.5
2023-05-07T08:00:33.746Z,17.5
2023-05-07T08:01:42.128Z,17.5
2023-05-07T08:02:50.587Z,17.5
2023-05-07T08:03:59.024Z,17
2023-05-07T08:05:07.274Z,17
2023-05-07T08:06:15.631Z,17
2023-05-07T08:07:24.178Z,16.4
2023-05-07T08:08:32.517Z,16.4
2023-05-07T08:09:40.840Z,16.4
2023-05-07T08:10:49.380Z,17.5
2023-05-07T08:11:57.724Z,17.5
2023-05-07T08:13:06.053Z,17.5
2023-05-07T08:14:14.632Z,16.200001
2023-05-07T08:15:22.949Z,16.200001
2023-05-07T08:16:31.334Z,16.200001
2023-05-07T08:17:39.860Z,18.1
2023-05-07T08:18:48.168Z,18.1
2023-05-07T08:19:56.547Z,18.1
2023-05-07T08:21:05.101Z,16.1
2023-05-07T08:22:13.446Z,16.1
2023-05-07T08:23:21.766Z,16.1
2023-05-07T08:24:30.329Z,16.200001
2023-05-07T08:25:38.713Z,16.200001
2023-05-07T08:26:47.579Z,16.200001
2023-05-07T08:27:55.512Z,16.799999
2023-05-07T08:29:03.835Z,16.799999
2023-05-07T08:30:12.469Z,16.799999
2023-05-07T08:31:20.763Z,17.4
2023-05-07T08:32:29.094Z,17.4
2023-05-07T08:33:37.340Z,17.4
2023-05-07T08:34:45.891Z,16.700001
2023-05-07T08:35:54.213Z,16.700001
2023-05-07T08:37:04.529Z,16.700001
2023-05-07T08:38:11.075Z,16.799999
2023-05-07T08:39:19.399Z,16.799999
2023-05-07T08:40:27.730Z,16.799999
2023-05-07T08:41:36.247Z,16.9
2023-05-07T08:42:44.640Z,16.9
2023-05-07T08:43:52.967Z,16.9
2023-05-07T08:45:01.522Z,16.4
2023-05-07T08:46:10.530Z,16.4
2023-05-07T08:47:18.109Z,16.4
2023-05-07T08:48:26.666Z,16.6
2023-05-07T08:49:34.937Z,16.6
2023-05-07T08:50:43.250Z,16.6
2023-05-07T08:51:51.750Z,16.700001
2023-05-07T08:53:00.075Z,16.700001
2023-05-07T08:54:08.378Z,16.700001
2023-05-07T08:55:16.905Z,16.9
2023-05-07T08:56:25.231Z,16.9
2023-05-07T08:57:33.535Z,16.9
2023-05-07T08:58:42.067Z,16.799999
2023-05-07T08:59:50.383Z,16.799999
2023-05-07T09:00:58.701Z,16.799999
2023-05-07T09:02:09.804Z,16.5
2023-05-07T09:03:15.636Z,16.5
2023-05-07T09:04:23.912Z,16.5
2023-05-07T09:05:32.484Z,17.4
2023-05-07T09:06:40.804Z,17.4
2023-05-07T09:07:49.160Z,17.4
2023-05-07T09:08:57.688Z,16.799999
2023-05-07T09:10:06.014Z,16.799999
2023-05-07T09:11:14.364Z,16.799999
2023-05-07T09:12:22.876Z,16.5
2023-05-07T09:13:31.213Z,16.5
2023-05-07T09:14:39.577Z,16.5
2023-05-07T09:15:48.134Z,16.1
2023-05-07T09:16:56.426Z,16.1
2023-05-07T09:18:04.887Z,16.1
2023-05-07T09:19:13.325Z,15.3
2023-05-07T09:20:21.683Z,15.3
2023-05-07T09:21:29.994Z,15.3
2023-05-07T09:22:38.584Z,16.6
2023-05-07T09:23:46.904Z,16.6
2023-05-07T09:24:55.236Z,16.6
2023-05-07T09:26:03.776Z,15.4
2023-05-07T09:27:12.113Z,15.4
2023-05-07T09:28:20.447Z,15.4
2023-05-07T09:29:29.010Z,15.8
2023-05-07T09:30:37.406Z,15.8
2023-05-07T09:31:45.741Z,15.8
2023-05-07T09:32:54.323Z,16.799999
2023-05-07T09:34:02.644Z,16.799999
2023-05-07T09:35:11.114Z,16.799999
2023-05-07T09:36:19.518Z,15.8
2023-05-07T09:37:27.848Z,15.8
2023-05-07T09:38:36.166Z,15.8
2023-05-07T09:39:44.788Z,15.6
2023-05-07T09:40:53.136Z,15.6
2023-05-07T09:42:01.474Z,15.6
2023-05-07T09:43:10.115Z,16.9
2023-05-07T09:44:18.397Z,16.9
2023-05-07T09:45:26.741Z,16.9
2023-05-07T09:46:35.279Z,17.1
2023-05-07T09:47:43.718Z,17.1
2023-05-07T09:48:51.987Z,17.1
2023-05-07T09:50:00.591Z,17.200001
2023-05-07T09:51:08.906Z,17.200001
2023-05-07T09:52:17.295Z,17.200001
2023-05-07T09:53:25.854Z,16.6
2023-05-07T09:54:34.174Z,16.6
2023-05-07T09:55:42.514Z,16.6
2023-05-07T09:56:51.051Z,15.6
2023-05-07T09:57:59.393Z,15.6
2023-05-07T09:59:07.736Z,15.6
2023-05-07T10:00:16.471Z,15.7
2023-05-07T10:01:24.661Z,15.7
2023-05-07T10:02:33.018Z,15.7
2023-05-07T10:03:41.802Z,16.200001
2023-05-07T10:04:49.872Z,16.200001
2023-05-07T10:05:58.224Z,16.200001
2023-05-07T10:07:06.748Z,15.9
2023-05-07T10:08:15.092Z,15.9
2023-05-07T10:09:23.424Z,15.9
2023-05-07T10:10:31.981Z,15.4
2023-05-07T10:11:40.391Z,15.4
2023-05-07T10:12:48.719Z,15.4
2023-05-07T10:13:57.328Z,15.7
2023-05-07T10:15:05.680Z,15.7
2023-05-07T10:16:14.023Z,15.7
2023-05-07T10:17:22.620Z,15.2
2023-05-07T10:18:30.976Z,15.2
2023-05-07T10:19:39.270Z,15.2
2023-05-07T10:20:47.803Z,15.5
2023-05-07T10:21:56.257Z,15.5
2023-05-07T10:23:04.482Z,15.5
2023-05-07T10:24:13.025Z,15.9
2023-05-07T10:25:21.400Z,15.9
2023-05-07T10:26:29.736Z,15.9
2023-05-07T10:27:38.313Z,15.4
2023-05-07T10:28:46.624Z,15.4
2023-05-07T10:29:54.969Z,15.4
2023-05-07T10:31:03.503Z,15.7
2023-05-07T10:32:11.829Z,15.7
2023-05-07T10:33:20.162Z,15.7
2023-05-07T10:34:28.719Z,14.6
2023-05-07T10:35:37.084Z,14.6
2023-05-07T10:36:45.434Z,14.6
2023-05-07T10:37:54.094Z,15.5
2023-05-07T10:39:02.400Z,15.5
2023-05-07T10:40:10.782Z,15.5
2023-05-07T10:41:19.317Z,14.8
2023-05-07T10:42:27.701Z,14.8
2023-05-07T10:43:36.028Z,14.8
2023-05-07T10:44:44.650Z,15.4
2023-05-07T10:45:52.990Z,15.4
2023-05-07T10:47:01.309Z,15.4
2023-05-07T10:48:21.350Z,14.4
2023-05-07T10:49:18.190Z,14.4
2023-05-07T10:50:26.592Z,14.4
2023-05-07T10:51:35.109Z,15.1
2023-05-07T10:52:43.427Z,15.1
2023-05-07T10:53:51.857Z,15.1
2023-05-07T10:55:00.304Z,15.4
2023-05-07T10:56:08.619Z,15.4
2023-05-07T10:57:16.986Z,15.4
2023-05-07T10:58:31.130Z,14.1
2023-05-07T10:59:33.917Z,14.1
2023-05-07T11:00:42.235Z,14.1
2023-05-07T11:01:50.817Z,14.4
2023-05-07T11:02:59.166Z,14.4
2023-05-07T11:04:07.464Z,14.4
2023-05-07T11:05:16.093Z,14.6
2023-05-07T11:06:24.398Z,14.6
2023-05-07T11:07:32.759Z,14.6
2023-05-07T11:08:41.281Z,14.7
2023-05-07T11:09:49.759Z,14.7
2023-05-07T11:10:57.984Z,14.7
2023-05-07T11:12:06.513Z,14.8
2023-05-07T11:13:14.874Z,14.8
2023-05-07T11:14:23.179Z,14.8
2023-05-07T11:15:31.748Z,14.2
2023-05-07T11:16:40.159Z,14.2
2023-05-07T11:17:48.421Z,14.2
2023-05-07T11:18:56.937Z,14.5
2023-05-07T11:20:05.309Z,14.5
2023-05-07T11:21:13.629Z,14.5
2023-05-07T11:22:22.210Z,14.7
2023-05-07T11:23:30.554Z,14.7
2023-05-07T11:24:38.901Z,14.7
2023-05-07T11:25:47.481Z,14.1
2023-05-07T11:26:55.773Z,14.1
2023-05-07T11:28:04.106Z,14.1
2023-05-07T11:29:12.921Z,13.5
2023-05-07T11:30:21.290Z,13.5
2023-05-07T11:31:29.705Z,13.5
2023-05-07T11:32:38.234Z,13
2023-05-07T11:33:47.343Z,13
2023-05-07T11:34:55.679Z,13
2023-05-07T11:36:04.279Z,13.1
2023-05-07T11:37:12.580Z,13.1
2023-05-07T11:38:20.935Z,13.1
2023-05-07T11:39:29.469Z,12.4
2023-05-07T11:40:37.796Z,12.4
2023-05-07T11:41:46.154Z,12.4
2023-05-07T11:42:54.670Z,12.6
2023-05-07T11:44:03.023Z,12.6
2023-05-07T11:45:11.698Z,12.6
2023-05-07T11:46:20.267Z,12.3
2023-05-07T11:47:28.350Z,12.3
2023-05-07T11:48:36.669Z,12.3
2023-05-07T11:49:45.203Z,11.6
2023-05-07T11:50:53.555Z,11.6
2023-05-07T11:52:01.882Z,11.6
2023-05-07T11:53:10.424Z,11.4
2023-05-07T11:54:18.756Z,11.4
2023-05-07T11:55:27.093Z,11.4
2023-05-07T11:56:35.647Z,11.9
2023-05-07T11:57:44.017Z,11.9
2023-05-07T11:58:52.332Z,11.9
2023-05-07T12:00:00.887Z,10.9
2023-05-07T12:01:09.240Z,10.9
2023-05-07T12:02:17.596Z,10.9
2023-05-07T12:03:26.625Z,12.7
2023-05-07T12:04:34.509Z,12.7
2023-05-07T12:05:42.801Z,12.7
2023-05-07T12:06:51.326Z,12.1
2023-05-07T12:07:59.662Z,12.1
2023-05-07T12:09:08.029Z,12.1
2023-05-07T12:10:16.561Z,12.2
2023-05-07T12:11:24.954Z,12.2
2023-05-07T12:12:33.218Z,12.2
2023-05-07T12:13:41.938Z,11.4
2023-05-07T12:14:50.100Z,11.4
2023-05-07T12:15:58.431Z,11.4
2023-05-07T12:17:07.052Z,11.5
2023-05-07T12:18:15.303Z,11.5
2023-05-07T12:19:23.642Z,11.5
2023-05-07T12:20:32.170Z,10.9
2023-05-07T12:21:40.533Z,10.9
2023-05-07T12:22:48.856Z,10.9
2023-05-07T12:23:57.383Z,9.7
2023-05-07T12:25:05.754Z,9.7
2023-05-07T12:26:14.054Z,9.7
2023-05-07T12:27:22.567Z,10.1
2023-05-07T12:28:30.909Z,10.1
2023-05-07T12:29:39.294Z,10.1
2023-05-07T12:30:47.802Z,10.8
2023-05-07T12:31:56.214Z,10.8
2023-05-07T12:33:04.523Z,10.8
2023-05-07T12:34:12.996Z,10.6
2023-05-07T12:35:21.348Z,10.6
2023-05-07T12:36:29.724Z,10.6
2023-05-07T12:37:38.266Z,11
2023-05-07T12:38:46.601Z,11
2023-05-07T12:39:54.943Z,11
2023-05-07T12:41:03.498Z,11.1
2023-05-07T12:42:11.855Z,11.1
2023-05-07T12:43:20.183Z,11.1
2023-05-07T12:44:28.812Z,11.4
2023-05-07T12:45:37.189Z,11.4
2023-05-07T12:46:45.583Z,11.4
2023-05-07T12:47:54.083Z,12.1
2023-05-07T12:49:02.387Z,12.1
2023-05-07T12:50:10.756Z,12.1
2023-05-07T12:51:19.351Z,11.9
2023-05-07T12:52:27.685Z,11.9
2023-05-07T12:53:36.027Z,11.9
2023-05-07T12:54:44.608Z,11.1
2023-05-07T12:55:52.943Z,11.1
2023-05-07T12:57:01.263Z,11.1
2023-05-07T12:58:09.814Z,11.6
2023-05-07T12:59:18.157Z,11.6
2023-05-07T13:00:26.554Z,11.6
2023-05-07T13:01:35.146Z,11.9
2023-05-07T13:02:43.547Z,11.9
2023-05-07T13:03:51.881Z,11.9
2023-05-07T13:05:00.411Z,11.7
2023-05-07T13:06:08.765Z,11.7
2023-05-07T13:07:17.110Z,11.7
2023-05-07T13:08:25.637Z,12.2
2023-05-07T13:09:33.979Z,12.2
2023-05-07T13:10:42.314Z,12.2
2023-05-07T13:11:50.870Z,11.6
2023-05-07T13:12:59.302Z,11.6
2023-05-07T13:14:07.559Z,11.6
2023-05-07T13:15:16.141Z,12.1
2023-05-07T13:16:24.521Z,12.1
2023-05-07T13:17:32.956Z,12.1
2023-05-07T13:18:41.608Z,12
2023-05-07T13:19:49.777Z,12
2023-05-07T13:20:58.087Z,12
2023-05-07T13:22:06.625Z,13.3
2023-05-07T13:23:14.963Z,13.3
2023-05-07T13:24:23.398Z,13.3
2023-05-07T13:25:31.944Z,11.4
2023-05-07T13:26:40.273Z,11.4
2023-05-07T13:27:53.998Z,11.4
2023-05-07T13:28:57.143Z,10.2
2023-05-07T13:30:05.547Z,10.2
2023-05-07T13:31:13.818Z,10.2
2023-05-07T13:32:22.456Z,11.7
2023-05-07T13:33:30.772Z,11.7
2023-05-07T13:34:39.034Z,11.7
2023-05-07T13:35:47.573Z,9.9
2023-05-07T13:36:55.898Z,9.9
2023-05-07T13:38:04.236Z,9.9
2023-05-07T13:39:12.846Z,9.3
2023-05-07T13:40:21.143Z,9.3
2023-05-07T13:41:29.465Z,9.3
2023-05-07T13:42:38.057Z,10.6
2023-05-07T13:43:46.387Z,10.6
2023-05-07T13:44:54.745Z,10.6
2023-05-07T13:46:03.408Z,8.6
2023-05-07T13:47:11.660Z,8.6
2023-05-07T13:48:20.179Z,8.6
2023-05-07T13:49:28.634Z,8.7
2023-05-07T13:50:36.958Z,8.7
2023-05-07T13:51:45.288Z,8.7
2023-05-07T13:52:53.831Z,8.4
2023-05-07T13:54:02.148Z,8.4
2023-05-07T13:55:10.498Z,8.4
2023-05-07T13:56:19.030Z,8.5
2023-05-07T13:57:27.396Z,8.5
2023-05-07T13:58:36.629Z,8.5
2023-05-07T13:59:44.245Z,9.4
2023-05-07T14:00:52.592Z,9.4
2023-05-07T14:02:00.879Z,9.4
2023-05-07T14:03:09.464Z,9.2
2023-05-07T14:04:17.723Z,9.2
2023-05-07T14:05:26.061Z,9.2
2023-05-07T14:06:34.574Z,9.3
2023-05-07T14:07:42.891Z,9.3
2023-05-07T14:08:51.222Z,9.3
2023-05-07T14:09:59.771Z,8.4
2023-05-07T14:11:08.140Z,8.4
2023-05-07T14:12:16.443Z,8.4
2023-05-07T14:13:24.982Z,8.3
2023-05-07T14:14:33.290Z,8.3
2023-05-07T14:15:41.592Z,8.3
2023-05-07T14:16:50.965Z,9.3
2023-05-07T14:17:58.447Z,9.3
2023-05-07T14:19:06.733Z,9.3
2023-05-07T14:20:15.456Z,7.9
2023-05-07T14:21:23.584Z,7.9
2023-05-07T14:22:31.898Z,7.9
2023-05-07T14:23:40.407Z,8.3
2023-05-07T14:24:56.306Z,8.3
2023-05-07T14:25:57.060Z,8.3
2023-05-07T14:27:05.564Z,8.2
2023-05-07T14:28:13.888Z,8.2
2023-05-07T14:29:23.716Z,8.2